createdAt,value
2019-03-29T00:02:22.502Z,51.20
2019-03-29T00:04:54.945Z,51.70
2019-03-29T00:07:38.910Z,49.88
2019-03-29T00:10:00.837Z,53.90
2019-03-29T00:12:33.535Z,49.95
2019-03-29T00:15:07.930Z,49.70
2019-03-29T00:17:40.357Z,49.15
2019-03-29T00:20:12.640Z,50.45
2019-03-29T00:22:44.806Z,48.98
2019-03-29T00:25:17.143Z,50.43
2019-03-29T00:27:49.380Z,51.15
2019-03-29T00:30:22.116Z,49.60
2019-03-29T00:32:54.472Z,52.30
2019-03-29T00:35:26.796Z,48.33
2019-03-29T00:37:58.936Z,46.63
2019-03-29T00:40:31.209Z,48.92
2019-03-29T00:43:03.525Z,47.05
2019-03-29T00:45:36.036Z,46.02
2019-03-29T00:48:08.675Z,47.13
2019-03-29T00:50:41.369Z,47.58
2019-03-29T00:53:14.532Z,46.17
2019-03-29T00:55:46.973Z,46.70
2019-03-29T00:58:19.452Z,46.27
2019-03-29T01:00:53.117Z,44.13
2019-03-29T01:03:25.364Z,50.13
2019-03-29T01:05:57.937Z,44.63
2019-03-29T01:08:30.080Z,49.18
2019-03-29T01:11:02.541Z,44.08
2019-03-29T01:13:34.992Z,43.73
2019-03-29T01:16:07.345Z,46.40
2019-03-29T01:18:39.590Z,55.03
2019-03-29T01:21:11.892Z,46.98
2019-03-29T01:23:44.174Z,44.90
2019-03-29T01:26:16.547Z,45.97
2019-03-29T01:28:48.784Z,45.23
2019-03-29T01:31:21.319Z,45.92
2019-03-29T01:33:53.708Z,46.60
2019-03-29T01:36:26.134Z,44.98
2019-03-29T01:38:58.384Z,43.55
2019-03-29T01:41:30.745Z,46.70
2019-03-29T01:44:03.010Z,39.83
2019-03-29T01:46:35.283Z,40.10
2019-03-29T01:49:07.443Z,44.00
2019-03-29T01:51:39.964Z,41.92
2019-03-29T01:54:12.384Z,39.08
2019-03-29T01:56:44.567Z,37.13
2019-03-29T01:59:17.070Z,40.70
2019-03-29T02:01:49.637Z,38.95
2019-03-29T02:04:22.008Z,34.63
2019-03-29T02:06:54.455Z,44.18
2019-03-29T02:09:26.617Z,34.43
2019-03-29T02:11:59.338Z,33.83
2019-03-29T02:14:32.326Z,35.15
2019-03-29T02:17:04.698Z,31.90
2019-03-29T02:19:36.856Z,32.58
2019-03-29T02:22:09.315Z,31.33
2019-03-29T02:24:41.708Z,34.10
2019-03-29T02:27:14.246Z,31.35
2019-03-29T02:29:46.522Z,30.62
2019-03-29T02:32:18.885Z,31.23
2019-03-29T02:34:52.157Z,29.87
2019-03-29T02:37:24.824Z,31.63
2019-03-29T02:39:56.975Z,28.55
2019-03-29T02:42:29.231Z,30.20
2019-03-29T02:45:03.324Z,26.42
2019-03-29T02:47:35.307Z,27.27
2019-03-29T02:50:09.132Z,30.68
2019-03-29T02:52:41.447Z,30.77
2019-03-29T02:55:13.816Z,25.35
2019-03-29T02:57:46.293Z,26.55
2019-03-29T03:00:18.577Z,27.50
2019-03-29T03:02:50.869Z,29.27
2019-03-29T03:05:23.105Z,26.73
2019-03-29T03:07:56.505Z,22.90
2019-03-29T03:10:28.680Z,23.65
2019-03-29T03:13:00.876Z,24.10
2019-03-29T03:15:33.396Z,23.30
2019-03-29T03:18:05.571Z,22.37
2019-03-29T03:20:37.891Z,24.00
2019-03-29T03:23:10.079Z,22.13
2019-03-29T03:25:42.302Z,22.98
2019-03-29T03:28:14.598Z,24.37
2019-03-29T03:30:46.914Z,24.72
2019-03-29T03:33:19.131Z,21.67
2019-03-29T03:35:51.409Z,21.07
2019-03-29T03:38:24.139Z,23.83
2019-03-29T03:40:56.334Z,24.82
2019-03-29T03:43:28.500Z,24.80
2019-03-29T03:46:00.728Z,29.27
2019-03-29T03:48:33.156Z,27.62
2019-03-29T03:51:05.805Z,24.57
2019-03-29T03:53:38.121Z,31.35
2019-03-29T03:56:10.390Z,31.27
2019-03-29T03:58:42.987Z,21.48
2019-03-29T04:01:15.223Z,25.45
2019-03-29T04:03:47.345Z,26.62
2019-03-29T04:06:19.719Z,24.07
2019-03-29T04:08:51.958Z,20.60
2019-03-29T04:11:24.103Z,21.12
2019-03-29T04:13:56.480Z,27.77
2019-03-29T04:16:28.995Z,25.15
2019-03-29T04:19:01.182Z,27.77
2019-03-29T04:21:33.565Z,23.85
2019-03-29T04:24:05.800Z,22.48
2019-03-29T04:26:38.026Z,23.30
2019-03-29T04:29:10.193Z,23.55
2019-03-29T04:31:42.453Z,21.55
2019-03-29T04:34:14.720Z,20.62
2019-03-29T04:36:46.967Z,22.00
2019-03-29T04:39:19.404Z,23.57
2019-03-29T04:41:51.552Z,25.12
2019-03-29T04:44:23.830Z,22.98
2019-03-29T04:46:56.148Z,20.32
2019-03-29T04:49:28.533Z,23.00
2019-03-29T04:52:00.791Z,30.00
2019-03-29T04:54:33.493Z,27.55
2019-03-29T04:57:06.072Z,22.90
2019-03-29T04:59:38.367Z,20.37
2019-03-29T05:02:10.488Z,22.52
2019-03-29T05:04:42.764Z,18.12
2019-03-29T05:07:14.898Z,66.47
2019-03-29T05:09:47.346Z,25.55
2019-03-29T05:12:19.791Z,20.60
2019-03-29T05:14:52.199Z,21.33
2019-03-29T05:17:24.924Z,19.73
2019-03-29T05:19:57.191Z,40.78
2019-03-29T05:22:29.404Z,22.67
2019-03-29T05:25:01.693Z,23.77
2019-03-29T05:27:33.842Z,21.60
2019-03-29T05:30:07.518Z,21.93
2019-03-29T05:32:39.721Z,25.23
2019-03-29T05:35:12.010Z,40.73
2019-03-29T05:37:44.414Z,28.30
2019-03-29T05:40:16.838Z,26.90
2019-03-29T05:42:48.870Z,19.52
2019-03-29T05:45:21.147Z,22.35
2019-03-29T05:47:53.262Z,20.65
2019-03-29T05:50:25.581Z,19.42
2019-03-29T05:52:57.718Z,21.05
2019-03-29T05:55:32.746Z,23.10
2019-03-29T05:58:03.795Z,24.55
2019-03-29T06:00:36.114Z,27.37
2019-03-29T06:03:10.036Z,33.08
2019-03-29T06:05:41.999Z,29.45
2019-03-29T06:08:14.378Z,21.40
2019-03-29T06:10:49.210Z,23.05
2019-03-29T06:13:20.386Z,18.75
2019-03-29T06:15:52.651Z,18.92
2019-03-29T06:18:25.090Z,18.37
2019-03-29T06:20:57.287Z,22.17
2019-03-29T06:23:29.662Z,20.97
2019-03-29T06:26:02.064Z,21.30
2019-03-29T06:28:34.472Z,22.60
2019-03-29T06:31:06.687Z,28.25
2019-03-29T06:33:38.960Z,27.13
2019-03-29T06:36:12.208Z,23.80
2019-03-29T06:38:44.248Z,23.47
2019-03-29T06:41:16.570Z,17.35
2019-03-29T06:43:48.703Z,21.70
2019-03-29T06:46:20.882Z,45.45
2019-03-29T06:48:53.603Z,26.00
2019-03-29T06:51:26.231Z,32.60
2019-03-29T06:53:58.391Z,28.02
2019-03-29T06:56:35.849Z,45.25
2019-03-29T06:59:32.860Z,36.90
2019-03-29T07:02:22.702Z,29.72
2019-03-29T07:04:53.717Z,29.05
2019-03-29T07:07:53.863Z,44.77
2019-03-29T07:10:30.387Z,34.43
2019-03-29T07:13:02.922Z,30.57
2019-03-29T07:15:35.072Z,30.50
2019-03-29T07:18:07.352Z,26.53
2019-03-29T07:20:39.787Z,26.93
2019-03-29T07:23:12.258Z,24.70
2019-03-29T07:25:44.610Z,21.97
2019-03-29T07:28:16.981Z,23.12
2019-03-29T07:30:49.121Z,22.15
2019-03-29T07:33:21.426Z,24.97
2019-03-29T07:35:54.623Z,20.20
2019-03-29T07:38:27.005Z,24.90
2019-03-29T07:40:59.479Z,20.68
2019-03-29T07:43:31.934Z,22.75
2019-03-29T07:46:04.219Z,25.23
2019-03-29T07:48:36.571Z,20.37
2019-03-29T07:51:08.704Z,22.42
2019-03-29T07:53:41.006Z,21.97
2019-03-29T07:56:13.238Z,21.42
2019-03-29T07:58:45.976Z,92.47
2019-03-29T08:01:18.427Z,19.65
2019-03-29T08:03:51.425Z,30.67
2019-03-29T08:06:25.063Z,20.47
2019-03-29T08:08:57.414Z,21.15
2019-03-29T08:11:29.660Z,21.45
2019-03-29T08:14:02.073Z,26.23
2019-03-29T08:16:36.983Z,22.37
2019-03-29T08:19:09.355Z,42.50
2019-03-29T08:21:41.708Z,30.82
2019-03-29T08:24:14.003Z,23.87
2019-03-29T08:26:46.265Z,23.95
2019-03-29T08:29:18.554Z,53.33
2019-03-29T08:31:50.796Z,23.27
2019-03-29T08:34:23.090Z,20.88
2019-03-29T08:36:55.329Z,19.65
2019-03-29T08:39:28.522Z,23.13
2019-03-29T08:42:00.989Z,20.12
2019-03-29T08:44:33.685Z,23.87
2019-03-29T08:47:07.157Z,23.30
2019-03-29T08:49:39.632Z,23.80
2019-03-29T08:52:11.911Z,25.08
2019-03-29T08:54:44.169Z,26.02
2019-03-29T08:57:16.309Z,23.38
2019-03-29T08:59:48.493Z,34.73
2019-03-29T09:02:21.215Z,25.23
2019-03-29T09:04:53.553Z,24.05
2019-03-29T09:07:28.068Z,18.93
2019-03-29T09:09:59.307Z,23.50
2019-03-29T09:12:31.488Z,17.95
2019-03-29T09:15:04.270Z,22.32
2019-03-29T09:17:36.753Z,24.63
2019-03-29T09:20:10.597Z,25.48
2019-03-29T09:22:42.746Z,26.37
2019-03-29T09:25:14.849Z,27.80
2019-03-29T09:27:47.230Z,23.67
2019-03-29T09:30:19.487Z,27.87
2019-03-29T09:32:51.875Z,25.48
2019-03-29T09:35:24.230Z,20.97
2019-03-29T09:37:56.778Z,26.68
2019-03-29T09:40:29.144Z,24.75
2019-03-29T09:43:08.759Z,29.67
2019-03-29T09:45:35.999Z,25.72
2019-03-29T09:48:08.140Z,22.93
2019-03-29T09:50:40.438Z,24.87
2019-03-29T09:53:12.704Z,21.30
2019-03-29T09:55:45.853Z,25.37
2019-03-29T09:58:18.242Z,19.95
2019-03-29T10:00:51.121Z,31.57
2019-03-29T10:03:23.459Z,32.35
2019-03-29T10:05:55.979Z,63.08
2019-03-29T10:08:28.204Z,67.67
2019-03-29T10:11:00.481Z,52.43
2019-03-29T10:13:32.642Z,33.28
2019-03-29T10:16:05.477Z,24.72
2019-03-29T10:18:37.725Z,24.18
2019-03-29T10:21:10.007Z,23.07
2019-03-29T10:23:42.637Z,18.85
2019-03-29T10:26:14.897Z,19.67
2019-03-29T10:28:47.177Z,22.77
2019-03-29T10:31:31.494Z,22.75
2019-03-29T10:33:53.048Z,26.75
2019-03-29T10:36:25.392Z,22.73
2019-03-29T10:38:57.666Z,24.98
2019-03-29T10:41:29.844Z,21.73
2019-03-29T10:44:02.087Z,29.05
2019-03-29T10:46:34.771Z,27.05
2019-03-29T10:49:08.018Z,25.20
2019-03-29T10:51:40.493Z,23.60
2019-03-29T10:54:14.436Z,28.47
2019-03-29T10:56:49.168Z,24.32
2019-03-29T10:59:27.605Z,22.93
2019-03-29T11:01:55.701Z,30.08
2019-03-29T11:04:31.570Z,22.97
2019-03-29T11:07:02.995Z,27.70
2019-03-29T11:09:36.984Z,28.85
2019-03-29T11:12:08.836Z,29.30
2019-03-29T11:14:41.195Z,26.65
2019-03-29T11:17:13.580Z,26.37
2019-03-29T11:19:45.759Z,30.88
2019-03-29T11:22:17.929Z,26.43
2019-03-29T11:24:50.500Z,26.57
2019-03-29T11:27:22.791Z,25.52
2019-03-29T11:29:56.370Z,26.20
2019-03-29T11:32:29.038Z,30.62
2019-03-29T11:35:01.292Z,31.95
2019-03-29T11:37:33.548Z,31.27
2019-03-29T11:40:07.719Z,28.80
2019-03-29T11:42:39.900Z,40.23
2019-03-29T11:45:12.263Z,43.65
2019-03-29T11:47:44.819Z,37.63
2019-03-29T11:50:17.153Z,37.13
2019-03-29T11:52:49.417Z,27.58
2019-03-29T11:55:21.541Z,31.52
2019-03-29T11:57:55.901Z,27.77
2019-03-29T12:00:29.939Z,30.77
2019-03-29T12:03:02.292Z,31.40
2019-03-29T12:05:36.261Z,29.02
2019-03-29T12:08:08.241Z,25.02
2019-03-29T12:10:40.597Z,33.37
2019-03-29T12:13:12.984Z,34.23
2019-03-29T12:15:45.203Z,24.52
2019-03-29T12:18:17.622Z,24.82
2019-03-29T12:20:49.865Z,26.05
2019-03-29T12:23:22.151Z,29.77
2019-03-29T12:25:55.701Z,28.07
2019-03-29T12:28:27.982Z,30.32
2019-03-29T12:31:00.257Z,25.37
2019-03-29T12:33:32.619Z,29.40
2019-03-29T12:36:05.125Z,27.67
2019-03-29T12:38:37.377Z,35.23
2019-03-29T12:41:09.540Z,29.70
2019-03-29T12:43:54.598Z,31.33
2019-03-29T12:46:15.597Z,27.70
2019-03-29T12:48:50.159Z,32.48
2019-03-29T12:51:21.418Z,34.00
2019-03-29T12:53:53.697Z,32.67
2019-03-29T12:56:25.840Z,34.53
2019-03-29T12:58:58.127Z,29.45
2019-03-29T13:01:39.251Z,33.50
2019-03-29T13:04:03.964Z,34.80
2019-03-29T13:06:36.318Z,31.95
2019-03-29T13:09:08.794Z,30.13
2019-03-29T13:11:41.061Z,34.20
2019-03-29T13:14:13.357Z,34.10
2019-03-29T13:16:45.566Z,44.13
2019-03-29T13:19:18.002Z,43.45
2019-03-29T13:21:51.396Z,35.03
2019-03-29T13:24:23.671Z,40.90
2019-03-29T13:26:57.896Z,38.08
2019-03-29T13:29:30.169Z,42.27
2019-03-29T13:32:02.522Z,47.17
2019-03-29T13:34:35.016Z,36.05
2019-03-29T13:37:07.274Z,37.17
2019-03-29T13:39:39.788Z,35.47
2019-03-29T13:42:11.908Z,40.40
2019-03-29T13:44:44.229Z,36.95
2019-03-29T13:47:18.226Z,39.40
2019-03-29T13:49:50.309Z,38.53
2019-03-29T13:52:22.697Z,42.13
2019-03-29T13:54:55.059Z,49.23
2019-03-29T13:57:27.226Z,48.65
2019-03-29T13:59:59.603Z,46.58
2019-03-29T14:02:31.904Z,44.13
2019-03-29T14:05:04.300Z,42.62
2019-03-29T14:07:36.632Z,46.60
2019-03-29T14:10:09.698Z,66.62
2019-03-29T14:12:41.967Z,86.30
2019-03-29T14:15:14.349Z,83.27
2019-03-29T14:17:46.651Z,73.72
2019-03-29T14:20:21.866Z,62.45
2019-03-29T14:22:54.206Z,66.30
2019-03-29T14:25:26.406Z,61.80
2019-03-29T14:28:00.616Z,58.58
2019-03-29T14:30:32.925Z,60.35
2019-03-29T14:33:05.057Z,52.90
2019-03-29T14:35:37.233Z,53.40
2019-03-29T14:38:09.481Z,48.50
2019-03-29T14:40:42.111Z,48.52
2019-03-29T14:43:14.542Z,45.28
2019-03-29T14:45:46.921Z,46.55
2019-03-29T14:48:19.289Z,48.45
2019-03-29T14:50:51.575Z,48.48
2019-03-29T14:53:23.539Z,42.83
2019-03-29T14:55:55.513Z,53.55
2019-03-29T14:58:27.479Z,53.20
2019-03-29T15:00:59.441Z,48.28
2019-03-29T15:03:31.391Z,50.55
2019-03-29T15:06:03.375Z,50.38
2019-03-29T15:08:35.592Z,56.00
2019-03-29T15:11:21.329Z,47.03
2019-03-29T15:13:41.901Z,58.75
2019-03-29T15:16:14.095Z,59.10
2019-03-29T15:18:46.250Z,58.45
2019-03-29T15:21:18.448Z,49.67
2019-03-29T15:23:50.631Z,43.85
2019-03-29T15:26:23.024Z,43.97
2019-03-29T15:28:57.070Z,46.45
2019-03-29T15:31:29.385Z,42.05
2019-03-29T15:34:01.798Z,54.48
2019-03-29T15:36:34.374Z,45.58
2019-03-29T15:39:07.220Z,39.73
2019-03-29T15:41:39.587Z,45.05
2019-03-29T15:44:11.773Z,49.27
2019-03-29T15:46:44.080Z,37.25
2019-03-29T15:49:16.335Z,36.42
2019-03-29T15:51:49.056Z,41.20
2019-03-29T15:54:21.307Z,41.13
2019-03-29T15:56:53.578Z,41.98
2019-03-29T15:59:25.711Z,33.02
2019-03-29T16:01:58.053Z,32.63
2019-03-29T16:04:30.181Z,28.92
2019-03-29T16:07:02.516Z,29.30
2019-03-29T16:09:34.691Z,30.60
2019-03-29T16:12:07.035Z,27.25
2019-03-29T16:14:39.346Z,29.23
2019-03-29T16:17:11.530Z,28.65
2019-03-29T16:19:43.825Z,30.05
2019-03-29T16:22:16.541Z,32.05
2019-03-29T16:24:48.773Z,28.33
2019-03-29T16:27:20.986Z,27.58
2019-03-29T16:29:55.721Z,30.23
2019-03-29T16:32:30.169Z,30.17
2019-03-29T16:35:02.408Z,31.77
2019-03-29T16:37:34.727Z,34.67
2019-03-29T16:40:08.637Z,48.85
2019-03-29T16:42:41.502Z,32.28
2019-03-29T16:45:13.844Z,32.25
2019-03-29T16:47:46.088Z,28.73
2019-03-29T16:50:18.820Z,35.88
2019-03-29T16:52:51.643Z,31.80
2019-03-29T16:55:23.917Z,34.03
2019-03-29T16:57:56.194Z,35.38
2019-03-29T17:00:28.618Z,28.73
2019-03-29T17:03:00.835Z,30.25
2019-03-29T17:05:33.969Z,30.90
2019-03-29T17:08:06.296Z,29.75
2019-03-29T17:10:38.585Z,34.73
2019-03-29T17:13:10.959Z,32.40
2019-03-29T17:15:43.287Z,30.27
2019-03-29T17:18:28.542Z,28.02
2019-03-29T17:20:49.191Z,32.03
2019-03-29T17:23:21.686Z,33.40
2019-03-29T17:25:53.959Z,49.00
2019-03-29T17:28:26.234Z,32.40
2019-03-29T17:31:02.779Z,48.20
2019-03-29T17:33:35.243Z,31.95
2019-03-29T17:36:07.483Z,34.85
2019-03-29T17:38:39.756Z,31.75
2019-03-29T17:41:12.061Z,34.70
2019-03-29T17:43:44.361Z,29.67
2019-03-29T17:46:17.084Z,30.05
2019-03-29T17:48:50.098Z,33.85
2019-03-29T17:51:22.315Z,32.08
2019-03-29T17:53:54.642Z,27.62
2019-03-29T17:56:26.782Z,31.03
2019-03-29T17:58:59.054Z,29.82
2019-03-29T18:01:31.975Z,32.23
2019-03-29T18:04:04.160Z,31.73
2019-03-29T18:06:36.303Z,30.08
2019-03-29T18:09:09.571Z,32.98
2019-03-29T18:11:41.831Z,37.50
2019-03-29T18:14:15.300Z,32.13
2019-03-29T18:16:47.576Z,32.35
2019-03-29T18:19:19.754Z,33.85
2019-03-29T18:21:52.010Z,40.23
2019-03-29T18:24:24.523Z,36.95
2019-03-29T18:26:56.668Z,37.67
2019-03-29T18:29:28.843Z,38.17
2019-03-29T18:32:01.853Z,38.33
2019-03-29T18:34:34.256Z,35.52
2019-03-29T18:37:06.703Z,37.40
2019-03-29T18:39:39.246Z,40.23
2019-03-29T18:42:11.442Z,40.98
2019-03-29T18:44:43.829Z,32.48
2019-03-29T18:47:16.075Z,37.07
2019-03-29T18:49:48.461Z,37.10
2019-03-29T18:52:20.812Z,40.73
2019-03-29T18:54:53.148Z,43.23
2019-03-29T18:57:25.307Z,42.48
2019-03-29T18:59:57.610Z,40.58
2019-03-29T19:02:29.819Z,41.63
2019-03-29T19:05:02.084Z,47.20
2019-03-29T19:07:35.316Z,41.25
2019-03-29T19:10:09.000Z,41.68
2019-03-29T19:12:41.320Z,40.58
2019-03-29T19:15:13.597Z,41.23
2019-03-29T19:17:45.822Z,42.83
2019-03-29T19:20:27.474Z,38.17
2019-03-29T19:22:51.484Z,43.77
2019-03-29T19:25:24.099Z,41.93
2019-03-29T19:27:57.342Z,39.87
2019-03-29T19:30:29.641Z,36.80
2019-03-29T19:33:04.278Z,45.65
2019-03-29T19:35:36.553Z,43.15
2019-03-29T19:38:08.831Z,41.55
2019-03-29T19:40:41.113Z,46.85
2019-03-29T19:43:13.319Z,47.85
2019-03-29T19:45:45.601Z,40.67
2019-03-29T19:48:17.714Z,38.53
2019-03-29T19:50:50.014Z,41.95
2019-03-29T19:53:22.267Z,43.78
2019-03-29T19:55:55.763Z,41.50
2019-03-29T19:58:28.237Z,48.78
2019-03-29T20:01:00.724Z,38.98
2019-03-29T20:03:33.038Z,39.00
2019-03-29T20:06:05.226Z,43.33
2019-03-29T20:08:37.352Z,42.88
2019-03-29T20:11:09.516Z,36.23
2019-03-29T20:13:41.567Z,39.18
2019-03-29T20:16:13.910Z,44.90
2019-03-29T20:18:46.223Z,44.27
2019-03-29T20:21:18.405Z,45.80
2019-03-29T20:23:50.581Z,44.50
2019-03-29T20:26:22.949Z,36.90
2019-03-29T20:28:55.336Z,38.38
2019-03-29T20:31:27.690Z,44.88
2019-03-29T20:34:02.461Z,37.90
2019-03-29T20:36:35.857Z,37.23
2019-03-29T20:39:09.105Z,38.78
2019-03-29T20:41:41.601Z,38.83
2019-03-29T20:44:13.849Z,35.28
2019-03-29T20:46:46.271Z,38.53
2019-03-29T20:49:18.472Z,44.50
2019-03-29T20:51:50.878Z,32.95
2019-03-29T20:54:23.216Z,33.15
2019-03-29T20:56:55.740Z,34.33
2019-03-29T20:59:28.102Z,37.03
2019-03-29T21:02:00.467Z,35.08
2019-03-29T21:04:32.848Z,34.53
2019-03-29T21:07:05.124Z,40.33
2019-03-29T21:09:37.604Z,45.03
2019-03-29T21:12:09.953Z,68.97
2019-03-29T21:14:42.320Z,48.87
2019-03-29T21:17:14.702Z,52.88
2019-03-29T21:19:47.232Z,48.13
2019-03-29T21:22:19.439Z,66.20
2019-03-29T21:24:51.577Z,57.60
2019-03-29T21:27:24.782Z,56.68
2019-03-29T21:29:57.018Z,51.05
2019-03-29T21:32:29.201Z,52.45
2019-03-29T21:35:04.713Z,51.53
2019-03-29T21:37:37.487Z,50.20
2019-03-29T21:40:10.014Z,45.67
2019-03-29T21:42:42.194Z,54.83
2019-03-29T21:45:27.679Z,59.63
2019-03-29T21:48:01.465Z,62.25
2019-03-29T21:50:21.650Z,93.40
2019-03-29T21:52:54.055Z,57.25
2019-03-29T21:55:26.332Z,44.30
2019-03-29T21:57:58.697Z,39.85
2019-03-29T22:00:31.051Z,45.10
2019-03-29T22:03:03.541Z,45.52
2019-03-29T22:05:35.782Z,53.55
2019-03-29T22:08:08.056Z,58.63
2019-03-29T22:10:40.223Z,47.35
2019-03-29T22:13:12.844Z,47.90
2019-03-29T22:15:45.012Z,51.53
2019-03-29T22:18:17.205Z,44.85
2019-03-29T22:20:49.363Z,52.03
2019-03-29T22:23:21.707Z,50.08
2019-03-29T22:25:54.328Z,50.20
2019-03-29T22:28:26.741Z,45.92
2019-03-29T22:30:58.999Z,48.48
2019-03-29T22:33:31.391Z,46.65
2019-03-29T22:36:06.636Z,50.83
2019-03-29T22:38:38.901Z,56.42
2019-03-29T22:41:11.138Z,55.08
2019-03-29T22:43:44.437Z,52.67
2019-03-29T22:46:16.738Z,50.90
2019-03-29T22:48:53.001Z,46.80
2019-03-29T22:51:22.309Z,47.65
2019-03-29T22:53:54.593Z,52.95
2019-03-29T22:56:26.863Z,53.95
2019-03-29T22:58:59.253Z,50.50
2019-03-29T23:01:31.758Z,50.23
2019-03-29T23:04:04.070Z,55.75
2019-03-29T23:06:36.316Z,57.20
2019-03-29T23:09:11.828Z,64.12
2019-03-29T23:11:42.824Z,107.43
2019-03-29T23:14:15.022Z,72.95
2019-03-29T23:16:47.313Z,78.83
2019-03-29T23:19:19.610Z,128.57
2019-03-29T23:21:51.880Z,73.90
2019-03-29T23:24:24.383Z,71.37
2019-03-29T23:26:57.364Z,70.67
2019-03-29T23:29:29.915Z,64.45
2019-03-29T23:32:02.202Z,60.40
2019-03-29T23:34:34.617Z,55.90
2019-03-29T23:37:08.191Z,60.60
2019-03-29T23:39:40.634Z,68.45
2019-03-29T23:42:13.016Z,65.42
2019-03-29T23:44:45.391Z,59.73
2019-03-29T23:47:17.773Z,63.85
2019-03-29T23:49:50.216Z,69.53
2019-03-29T23:52:22.605Z,65.40
2019-03-29T23:54:55.074Z,68.85
2019-03-29T23:57:27.297Z,66.77
2019-03-29T23:59:59.842Z,68.45
